sensor_id;sensor_type;location;lat;lon;timestamp;P1;durP1;ratioP1;P2;durP2;ratioP2
84738;SDS011;74969;44.836;-0.586;2024-01-30T00:02:21;8.75;;;4.10;;
84738;SDS011;74969;44.836;-0.586;2024-01-30T00:04:47;6.67;;;4.43;;
84738;SDS011;74969;44.836;-0.586;2024-01-30T00:07:12;8.27;;;4.72;;
84738;SDS011;74969;44.836;-0.586;2024-01-30T00:09:38;10.27;;;5.30;;
84738;SDS011;74969;44.836;-0.586;2024-01-30T00:12:07;11.32;;;4.55;;
84738;SDS011;74969;44.836;-0.586;2024-01-30T00:14:32;7.63;;;4.40;;
84738;SDS011;74969;44.836;-0.586;2024-01-30T00:16:58;11.27;;;4.85;;
84738;SDS011;74969;44.836;-0.586;2024-01-30T00:19:24;10.77;;;4.60;;
84738;SDS011;74969;44.836;-0.586;2024-01-30T00:21:49;9.45;;;4.65;;
84738;SDS011;74969;44.836;-0.586;2024-01-30T00:24:15;7.33;;;4.43;;
84738;SDS011;74969;44.836;-0.586;2024-01-30T00:26:40;7.07;;;4.18;;
84738;SDS011;74969;44.836;-0.586;2024-01-30T00:29:06;7.83;;;4.23;;
84738;SDS011;74969;44.836;-0.586;2024-01-30T00:31:32;8.38;;;4.43;;
84738;SDS011;74969;44.836;-0.586;2024-01-30T00:33:58;8.77;;;4.63;;
84738;SDS011;74969;44.836;-0.586;2024-01-30T00:36:23;9.90;;;5.03;;
84738;SDS011;74969;44.836;-0.586;2024-01-30T00:38:49;11.32;;;4.97;;
84738;SDS011;74969;44.836;-0.586;2024-01-30T00:41:16;7.30;;;4.17;;
84738;SDS011;74969;44.836;-0.586;2024-01-30T00:43:42;6.35;;;4.97;;
84738;SDS011;74969;44.836;-0.586;2024-01-30T00:46:08;6.93;;;4.43;;
84738;SDS011;74969;44.836;-0.586;2024-01-30T00:48:34;6.53;;;4.23;;
84738;SDS011;74969;44.836;-0.586;2024-01-30T00:50:59;8.40;;;4.60;;
84738;SDS011;74969;44.836;-0.586;2024-01-30T00:53:25;7.72;;;4.45;;
84738;SDS011;74969;44.836;-0.586;2024-01-30T00:55:51;12.75;;;5.07;;
84738;SDS011;74969;44.836;-0.586;2024-01-30T00:58:17;15.67;;;5.43;;
84738;SDS011;74969;44.836;-0.586;2024-01-30T01:00:44;12.15;;;4.63;;
84738;SDS011;74969;44.836;-0.586;2024-01-30T01:03:10;10.88;;;4.60;;
84738;SDS011;74969;44.836;-0.586;2024-01-30T01:05:35;13.40;;;5.25;;
84738;SDS011;74969;44.836;-0.586;2024-01-30T01:08:01;12.00;;;5.53;;
84738;SDS011;74969;44.836;-0.586;2024-01-30T01:10:27;8.73;;;4.90;;
84738;SDS011;74969;44.836;-0.586;2024-01-30T01:12:53;6.32;;;4.53;;
84738;SDS011;74969;44.836;-0.586;2024-01-30T01:15:18;12.50;;;5.10;;
84738;SDS011;74969;44.836;-0.586;2024-01-30T01:17:44;7.57;;;4.80;;
84738;SDS011;74969;44.836;-0.586;2024-01-30T01:20:10;12.70;;;5.22;;
84738;SDS011;74969;44.836;-0.586;2024-01-30T01:22:36;8.80;;;4.77;;
84738;SDS011;74969;44.836;-0.586;2024-01-30T01:25:03;6.20;;;4.30;;
84738;SDS011;74969;44.836;-0.586;2024-01-30T01:27:32;10.73;;;6.10;;
84738;SDS011;74969;44.836;-0.586;2024-01-30T01:29:59;10.73;;;5.95;;
84738;SDS011;74969;44.836;-0.586;2024-01-30T01:32:25;11.47;;;5.10;;
84738;SDS011;74969;44.836;-0.586;2024-01-30T01:34:51;12.18;;;5.70;;
84738;SDS011;74969;44.836;-0.586;2024-01-30T01:37:16;9.60;;;4.75;;
84738;SDS011;74969;44.836;-0.586;2024-01-30T01:39:42;10.80;;;5.35;;
84738;SDS011;74969;44.836;-0.586;2024-01-30T01:42:08;7.93;;;5.30;;
84738;SDS011;74969;44.836;-0.586;2024-01-30T01:44:34;9.63;;;5.30;;
84738;SDS011;74969;44.836;-0.586;2024-01-30T01:47:00;8.63;;;4.95;;
84738;SDS011;74969;44.836;-0.586;2024-01-30T01:49:26;13.05;;;5.22;;
84738;SDS011;74969;44.836;-0.586;2024-01-30T01:51:53;9.68;;;5.00;;
84738;SDS011;74969;44.836;-0.586;2024-01-30T01:54:21;7.23;;;5.13;;
84738;SDS011;74969;44.836;-0.586;2024-01-30T01:56:49;7.97;;;5.05;;
84738;SDS011;74969;44.836;-0.586;2024-01-30T01:59:16;8.13;;;5.72;;
84738;SDS011;74969;44.836;-0.586;2024-01-30T02:01:43;10.63;;;5.57;;
84738;SDS011;74969;44.836;-0.586;2024-01-30T02:04:10;11.35;;;5.72;;
84738;SDS011;74969;44.836;-0.586;2024-01-30T02:06:36;9.07;;;4.97;;
84738;SDS011;74969;44.836;-0.586;2024-01-30T02:09:03;8.85;;;5.22;;
84738;SDS011;74969;44.836;-0.586;2024-01-30T02:11:29;7.50;;;5.20;;
84738;SDS011;74969;44.836;-0.586;2024-01-30T02:13:55;8.07;;;4.65;;
84738;SDS011;74969;44.836;-0.586;2024-01-30T02:16:21;9.43;;;5.53;;
84738;SDS011;74969;44.836;-0.586;2024-01-30T02:18:46;9.23;;;5.20;;
84738;SDS011;74969;44.836;-0.586;2024-01-30T02:21:16;10.85;;;5.57;;
84738;SDS011;74969;44.836;-0.586;2024-01-30T02:23:43;12.05;;;5.53;;
84738;SDS011;74969;44.836;-0.586;2024-01-30T02:26:11;7.47;;;5.00;;
84738;SDS011;74969;44.836;-0.586;2024-01-30T02:28:37;6.27;;;4.67;;
84738;SDS011;74969;44.836;-0.586;2024-01-30T02:31:03;14.63;;;8.02;;
84738;SDS011;74969;44.836;-0.586;2024-01-30T02:33:29;11.40;;;5.95;;
84738;SDS011;74969;44.836;-0.586;2024-01-30T02:35:55;10.87;;;5.93;;
84738;SDS011;74969;44.836;-0.586;2024-01-30T02:38:20;12.73;;;6.28;;
84738;SDS011;74969;44.836;-0.586;2024-01-30T02:40:46;7.83;;;5.13;;
84738;SDS011;74969;44.836;-0.586;2024-01-30T02:43:12;12.82;;;5.82;;
84738;SDS011;74969;44.836;-0.586;2024-01-30T02:45:37;7.60;;;5.27;;
84738;SDS011;74969;44.836;-0.586;2024-01-30T02:48:03;8.52;;;5.80;;
84738;SDS011;74969;44.836;-0.586;2024-01-30T02:50:29;13.70;;;6.83;;
84738;SDS011;74969;44.836;-0.586;2024-01-30T02:52:55;12.27;;;5.88;;
84738;SDS011;74969;44.836;-0.586;2024-01-30T02:55:20;9.77;;;5.27;;
84738;SDS011;74969;44.836;-0.586;2024-01-30T02:57:46;10.00;;;6.05;;
84738;SDS011;74969;44.836;-0.586;2024-01-30T03:00:12;11.97;;;5.40;;
84738;SDS011;74969;44.836;-0.586;2024-01-30T03:02:38;13.23;;;6.15;;
84738;SDS011;74969;44.836;-0.586;2024-01-30T03:05:05;8.05;;;6.38;;
84738;SDS011;74969;44.836;-0.586;2024-01-30T03:07:31;10.03;;;5.63;;
84738;SDS011;74969;44.836;-0.586;2024-01-30T03:09:56;10.20;;;5.57;;
84738;SDS011;74969;44.836;-0.586;2024-01-30T03:12:22;9.50;;;6.60;;
84738;SDS011;74969;44.836;-0.586;2024-01-30T03:14:48;6.88;;;5.15;;
84738;SDS011;74969;44.836;-0.586;2024-01-30T03:17:14;9.63;;;5.47;;
84738;SDS011;74969;44.836;-0.586;2024-01-30T03:19:40;9.95;;;5.50;;
84738;SDS011;74969;44.836;-0.586;2024-01-30T03:22:06;16.02;;;9.35;;
84738;SDS011;74969;44.836;-0.586;2024-01-30T03:24:32;9.07;;;5.70;;
84738;SDS011;74969;44.836;-0.586;2024-01-30T03:26:57;9.80;;;5.25;;
84738;SDS011;74969;44.836;-0.586;2024-01-30T03:29:23;10.70;;;6.03;;
84738;SDS011;74969;44.836;-0.586;2024-01-30T03:31:48;8.32;;;5.00;;
84738;SDS011;74969;44.836;-0.586;2024-01-30T03:34:14;9.60;;;5.60;;
84738;SDS011;74969;44.836;-0.586;2024-01-30T03:36:40;9.82;;;5.82;;
84738;SDS011;74969;44.836;-0.586;2024-01-30T03:39:05;11.80;;;5.13;;
84738;SDS011;74969;44.836;-0.586;2024-01-30T03:41:31;11.73;;;6.00;;
84738;SDS011;74969;44.836;-0.586;2024-01-30T03:43:57;9.60;;;6.00;;
84738;SDS011;74969;44.836;-0.586;2024-01-30T03:46:23;8.95;;;5.70;;
84738;SDS011;74969;44.836;-0.586;2024-01-30T03:48:49;11.48;;;6.57;;
84738;SDS011;74969;44.836;-0.586;2024-01-30T03:51:15;10.57;;;5.80;;
84738;SDS011;74969;44.836;-0.586;2024-01-30T03:53:41;12.57;;;6.10;;
84738;SDS011;74969;44.836;-0.586;2024-01-30T03:56:08;9.18;;;6.05;;
84738;SDS011;74969;44.836;-0.586;2024-01-30T03:58:34;15.80;;;6.47;;
84738;SDS011;74969;44.836;-0.586;2024-01-30T04:01:00;13.43;;;6.35;;
84738;SDS011;74969;44.836;-0.586;2024-01-30T04:03:25;10.27;;;5.93;;
84738;SDS011;74969;44.836;-0.586;2024-01-30T04:05:51;10.73;;;6.18;;
84738;SDS011;74969;44.836;-0.586;2024-01-30T04:08:17;8.82;;;6.28;;
84738;SDS011;74969;44.836;-0.586;2024-01-30T04:10:43;10.73;;;5.78;;
84738;SDS011;74969;44.836;-0.586;2024-01-30T04:13:09;14.65;;;5.97;;
84738;SDS011;74969;44.836;-0.586;2024-01-30T04:15:35;10.17;;;6.00;;
84738;SDS011;74969;44.836;-0.586;2024-01-30T04:18:00;11.48;;;5.90;;
84738;SDS011;74969;44.836;-0.586;2024-01-30T04:20:26;12.13;;;7.53;;
84738;SDS011;74969;44.836;-0.586;2024-01-30T04:22:52;8.25;;;6.20;;
84738;SDS011;74969;44.836;-0.586;2024-01-30T04:25:18;11.13;;;5.87;;
84738;SDS011;74969;44.836;-0.586;2024-01-30T04:27:43;10.27;;;6.63;;
84738;SDS011;74969;44.836;-0.586;2024-01-30T04:30:09;12.50;;;6.33;;
84738;SDS011;74969;44.836;-0.586;2024-01-30T04:32:35;15.77;;;6.45;;
84738;SDS011;74969;44.836;-0.586;2024-01-30T04:35:01;9.38;;;5.70;;
84738;SDS011;74969;44.836;-0.586;2024-01-30T04:37:27;9.73;;;6.70;;
84738;SDS011;74969;44.836;-0.586;2024-01-30T04:39:53;9.47;;;5.87;;
84738;SDS011;74969;44.836;-0.586;2024-01-30T04:42:19;9.03;;;6.40;;
84738;SDS011;74969;44.836;-0.586;2024-01-30T04:44:44;11.18;;;6.55;;
84738;SDS011;74969;44.836;-0.586;2024-01-30T04:47:10;13.23;;;6.87;;
84738;SDS011;74969;44.836;-0.586;2024-01-30T04:49:38;9.48;;;6.82;;
84738;SDS011;74969;44.836;-0.586;2024-01-30T04:52:05;19.85;;;6.78;;
84738;SDS011;74969;44.836;-0.586;2024-01-30T04:54:31;10.98;;;6.78;;
84738;SDS011;74969;44.836;-0.586;2024-01-30T04:56:57;12.60;;;6.20;;
84738;SDS011;74969;44.836;-0.586;2024-01-30T04:59:23;7.25;;;6.45;;
84738;SDS011;74969;44.836;-0.586;2024-01-30T05:01:49;12.52;;;7.20;;
84738;SDS011;74969;44.836;-0.586;2024-01-30T05:04:14;10.17;;;6.20;;
84738;SDS011;74969;44.836;-0.586;2024-01-30T05:06:40;11.35;;;6.70;;
84738;SDS011;74969;44.836;-0.586;2024-01-30T05:09:06;11.67;;;6.30;;
84738;SDS011;74969;44.836;-0.586;2024-01-30T05:11:36;11.63;;;6.90;;
84738;SDS011;74969;44.836;-0.586;2024-01-30T05:14:05;13.65;;;6.35;;
84738;SDS011;74969;44.836;-0.586;2024-01-30T05:16:31;12.20;;;7.13;;
84738;SDS011;74969;44.836;-0.586;2024-01-30T05:18:57;11.77;;;7.03;;
84738;SDS011;74969;44.836;-0.586;2024-01-30T05:21:24;12.98;;;6.97;;
84738;SDS011;74969;44.836;-0.586;2024-01-30T05:23:49;12.77;;;6.90;;
84738;SDS011;74969;44.836;-0.586;2024-01-30T05:26:15;18.77;;;6.30;;
84738;SDS011;74969;44.836;-0.586;2024-01-30T05:28:41;11.98;;;7.40;;
84738;SDS011;74969;44.836;-0.586;2024-01-30T05:31:09;11.88;;;6.80;;
84738;SDS011;74969;44.836;-0.586;2024-01-30T05:33:35;11.70;;;7.70;;
84738;SDS011;74969;44.836;-0.586;2024-01-30T05:36:01;9.30;;;5.77;;
84738;SDS011;74969;44.836;-0.586;2024-01-30T05:38:30;14.57;;;7.47;;
84738;SDS011;74969;44.836;-0.586;2024-01-30T05:40:57;13.73;;;7.25;;
84738;SDS011;74969;44.836;-0.586;2024-01-30T05:43:25;10.80;;;6.65;;
84738;SDS011;74969;44.836;-0.586;2024-01-30T05:45:51;11.97;;;6.97;;
84738;SDS011;74969;44.836;-0.586;2024-01-30T05:48:18;9.70;;;6.35;;
84738;SDS011;74969;44.836;-0.586;2024-01-30T05:50:43;14.37;;;6.77;;
84738;SDS011;74969;44.836;-0.586;2024-01-30T05:53:10;9.90;;;6.85;;
84738;SDS011;74969;44.836;-0.586;2024-01-30T05:55:36;12.93;;;7.07;;
84738;SDS011;74969;44.836;-0.586;2024-01-30T05:58:01;9.53;;;6.07;;
84738;SDS011;74969;44.836;-0.586;2024-01-30T06:00:27;12.48;;;6.63;;
84738;SDS011;74969;44.836;-0.586;2024-01-30T06:02:52;9.65;;;5.90;;
84738;SDS011;74969;44.836;-0.586;2024-01-30T06:05:18;13.50;;;6.23;;
84738;SDS011;74969;44.836;-0.586;2024-01-30T06:07:44;12.13;;;7.20;;
84738;SDS011;74969;44.836;-0.586;2024-01-30T06:10:09;12.63;;;7.40;;
84738;SDS011;74969;44.836;-0.586;2024-01-30T06:12:35;15.27;;;7.65;;
84738;SDS011;74969;44.836;-0.586;2024-01-30T06:15:01;11.07;;;6.90;;
84738;SDS011;74969;44.836;-0.586;2024-01-30T06:17:27;11.52;;;7.60;;
84738;SDS011;74969;44.836;-0.586;2024-01-30T06:19:53;15.45;;;6.75;;
84738;SDS011;74969;44.836;-0.586;2024-01-30T06:22:19;14.40;;;7.70;;
84738;SDS011;74969;44.836;-0.586;2024-01-30T06:24:45;10.73;;;7.35;;
84738;SDS011;74969;44.836;-0.586;2024-01-30T06:27:12;11.88;;;6.70;;
84738;SDS011;74969;44.836;-0.586;2024-01-30T06:29:38;9.73;;;7.40;;
84738;SDS011;74969;44.836;-0.586;2024-01-30T06:32:05;15.82;;;8.10;;
84738;SDS011;74969;44.836;-0.586;2024-01-30T06:34:31;10.95;;;7.38;;
84738;SDS011;74969;44.836;-0.586;2024-01-30T06:36:56;12.10;;;7.27;;
84738;SDS011;74969;44.836;-0.586;2024-01-30T06:39:22;13.23;;;7.47;;
84738;SDS011;74969;44.836;-0.586;2024-01-30T06:41:48;15.60;;;7.40;;
84738;SDS011;74969;44.836;-0.586;2024-01-30T06:44:14;15.45;;;7.72;;
84738;SDS011;74969;44.836;-0.586;2024-01-30T06:46:40;9.88;;;6.70;;
84738;SDS011;74969;44.836;-0.586;2024-01-30T06:49:05;11.97;;;7.63;;
84738;SDS011;74969;44.836;-0.586;2024-01-30T06:51:31;15.52;;;7.80;;
84738;SDS011;74969;44.836;-0.586;2024-01-30T06:53:57;17.13;;;8.37;;
84738;SDS011;74969;44.836;-0.586;2024-01-30T06:56:23;15.77;;;7.77;;
84738;SDS011;74969;44.836;-0.586;2024-01-30T06:58:49;11.98;;;6.57;;
84738;SDS011;74969;44.836;-0.586;2024-01-30T07:01:15;16.05;;;8.00;;
84738;SDS011;74969;44.836;-0.586;2024-01-30T07:03:41;10.73;;;7.32;;
84738;SDS011;74969;44.836;-0.586;2024-01-30T07:06:07;12.38;;;7.75;;
84738;SDS011;74969;44.836;-0.586;2024-01-30T07:08:33;12.73;;;7.78;;
84738;SDS011;74969;44.836;-0.586;2024-01-30T07:10:59;11.43;;;8.10;;
84738;SDS011;74969;44.836;-0.586;2024-01-30T07:13:25;13.90;;;8.43;;
84738;SDS011;74969;44.836;-0.586;2024-01-30T07:15:50;13.38;;;8.63;;
84738;SDS011;74969;44.836;-0.586;2024-01-30T07:18:16;12.23;;;6.90;;
84738;SDS011;74969;44.836;-0.586;2024-01-30T07:20:42;16.00;;;8.98;;
84738;SDS011;74969;44.836;-0.586;2024-01-30T07:23:14;15.20;;;8.07;;
84738;SDS011;74969;44.836;-0.586;2024-01-30T07:25:41;17.30;;;9.27;;
84738;SDS011;74969;44.836;-0.586;2024-01-30T07:28:07;11.73;;;7.57;;
84738;SDS011;74969;44.836;-0.586;2024-01-30T07:30:42;13.30;;;7.82;;
84738;SDS011;74969;44.836;-0.586;2024-01-30T07:33:08;14.10;;;7.87;;
84738;SDS011;74969;44.836;-0.586;2024-01-30T07:35:34;15.70;;;9.10;;
84738;SDS011;74969;44.836;-0.586;2024-01-30T07:38:00;17.10;;;9.27;;
84738;SDS011;74969;44.836;-0.586;2024-01-30T07:40:26;13.40;;;8.82;;
84738;SDS011;74969;44.836;-0.586;2024-01-30T07:42:53;14.33;;;8.90;;
84738;SDS011;74969;44.836;-0.586;2024-01-30T07:45:19;15.07;;;8.73;;
84738;SDS011;74969;44.836;-0.586;2024-01-30T07:47:49;14.18;;;8.40;;
84738;SDS011;74969;44.836;-0.586;2024-01-30T07:50:15;14.35;;;9.32;;
84738;SDS011;74969;44.836;-0.586;2024-01-30T07:52:42;16.77;;;10.13;;
84738;SDS011;74969;44.836;-0.586;2024-01-30T07:55:08;15.77;;;10.63;;
84738;SDS011;74969;44.836;-0.586;2024-01-30T07:57:33;16.08;;;8.50;;
84738;SDS011;74969;44.836;-0.586;2024-01-30T07:59:59;16.50;;;8.27;;
84738;SDS011;74969;44.836;-0.586;2024-01-30T08:04:47;16.73;;;8.75;;
84738;SDS011;74969;44.836;-0.586;2024-01-30T08:07:15;19.02;;;9.77;;
84738;SDS011;74969;44.836;-0.586;2024-01-30T08:09:42;16.65;;;9.13;;
84738;SDS011;74969;44.836;-0.586;2024-01-30T08:12:08;17.85;;;9.02;;
84738;SDS011;74969;44.836;-0.586;2024-01-30T08:14:34;15.60;;;8.53;;
84738;SDS011;74969;44.836;-0.586;2024-01-30T08:16:59;16.93;;;9.10;;
84738;SDS011;74969;44.836;-0.586;2024-01-30T08:19:25;11.68;;;7.78;;
84738;SDS011;74969;44.836;-0.586;2024-01-30T08:21:50;12.23;;;8.73;;
84738;SDS011;74969;44.836;-0.586;2024-01-30T08:24:16;11.25;;;8.38;;
84738;SDS011;74969;44.836;-0.586;2024-01-30T08:29:19;18.33;;;10.17;;
84738;SDS011;74969;44.836;-0.586;2024-01-30T08:31:45;15.45;;;9.70;;
84738;SDS011;74969;44.836;-0.586;2024-01-30T08:34:11;15.68;;;8.90;;
84738;SDS011;74969;44.836;-0.586;2024-01-30T08:36:37;13.30;;;8.97;;
84738;SDS011;74969;44.836;-0.586;2024-01-30T08:39:03;16.38;;;9.75;;
84738;SDS011;74969;44.836;-0.586;2024-01-30T08:41:30;19.60;;;9.70;;
84738;SDS011;74969;44.836;-0.586;2024-01-30T08:43:56;14.52;;;9.40;;
84738;SDS011;74969;44.836;-0.586;2024-01-30T08:46:21;13.77;;;9.50;;
84738;SDS011;74969;44.836;-0.586;2024-01-30T08:48:47;15.00;;;9.02;;
84738;SDS011;74969;44.836;-0.586;2024-01-30T08:51:13;12.17;;;8.50;;
84738;SDS011;74969;44.836;-0.586;2024-01-30T08:53:40;15.23;;;8.38;;
84738;SDS011;74969;44.836;-0.586;2024-01-30T08:56:06;15.83;;;9.00;;
84738;SDS011;74969;44.836;-0.586;2024-01-30T08:58:32;13.00;;;7.15;;
84738;SDS011;74969;44.836;-0.586;2024-01-30T09:00:58;10.82;;;7.18;;
84738;SDS011;74969;44.836;-0.586;2024-01-30T09:03:24;11.57;;;7.13;;
84738;SDS011;74969;44.836;-0.586;2024-01-30T09:05:49;12.70;;;7.40;;
84738;SDS011;74969;44.836;-0.586;2024-01-30T09:08:15;11.17;;;7.00;;
84738;SDS011;74969;44.836;-0.586;2024-01-30T09:10:41;11.23;;;6.93;;
84738;SDS011;74969;44.836;-0.586;2024-01-30T09:13:07;11.98;;;7.53;;
84738;SDS011;74969;44.836;-0.586;2024-01-30T09:15:32;9.13;;;7.10;;
84738;SDS011;74969;44.836;-0.586;2024-01-30T09:17:58;13.47;;;6.57;;
84738;SDS011;74969;44.836;-0.586;2024-01-30T09:20:24;13.13;;;7.43;;
84738;SDS011;74969;44.836;-0.586;2024-01-30T09:22:49;12.70;;;6.90;;
84738;SDS011;74969;44.836;-0.586;2024-01-30T09:25:15;9.23;;;7.00;;
84738;SDS011;74969;44.836;-0.586;2024-01-30T09:27:41;9.97;;;7.20;;
84738;SDS011;74969;44.836;-0.586;2024-01-30T09:30:06;10.77;;;6.68;;
84738;SDS011;74969;44.836;-0.586;2024-01-30T09:32:33;10.32;;;6.88;;
84738;SDS011;74969;44.836;-0.586;2024-01-30T09:35:01;13.67;;;7.17;;
84738;SDS011;74969;44.836;-0.586;2024-01-30T09:37:27;8.85;;;6.72;;
84738;SDS011;74969;44.836;-0.586;2024-01-30T09:39:53;7.73;;;5.83;;
84738;SDS011;74969;44.836;-0.586;2024-01-30T09:45:03;11.27;;;6.60;;
84738;SDS011;74969;44.836;-0.586;2024-01-30T09:47:39;10.15;;;6.13;;
84738;SDS011;74969;44.836;-0.586;2024-01-30T09:50:09;12.63;;;7.25;;
84738;SDS011;74969;44.836;-0.586;2024-01-30T09:52:36;12.40;;;6.55;;
84738;SDS011;74969;44.836;-0.586;2024-01-30T09:55:02;10.63;;;5.68;;
84738;SDS011;74969;44.836;-0.586;2024-01-30T09:57:29;8.17;;;6.17;;
84738;SDS011;74969;44.836;-0.586;2024-01-30T09:59:55;8.60;;;6.32;;
84738;SDS011;74969;44.836;-0.586;2024-01-30T10:02:24;16.90;;;6.35;;
84738;SDS011;74969;44.836;-0.586;2024-01-30T10:04:53;11.20;;;6.40;;
84738;SDS011;74969;44.836;-0.586;2024-01-30T10:07:18;7.75;;;5.68;;
84738;SDS011;74969;44.836;-0.586;2024-01-30T10:09:45;9.68;;;6.07;;
84738;SDS011;74969;44.836;-0.586;2024-01-30T10:12:11;11.67;;;6.30;;
84738;SDS011;74969;44.836;-0.586;2024-01-30T10:14:40;9.77;;;6.35;;
84738;SDS011;74969;44.836;-0.586;2024-01-30T10:17:07;11.65;;;6.68;;
84738;SDS011;74969;44.836;-0.586;2024-01-30T10:19:34;11.98;;;6.47;;
84738;SDS011;74969;44.836;-0.586;2024-01-30T10:22:00;13.00;;;6.53;;
84738;SDS011;74969;44.836;-0.586;2024-01-30T10:24:26;8.73;;;7.40;;
84738;SDS011;74969;44.836;-0.586;2024-01-30T10:26:54;11.57;;;6.07;;
84738;SDS011;74969;44.836;-0.586;2024-01-30T10:29:20;12.07;;;6.95;;
84738;SDS011;74969;44.836;-0.586;2024-01-30T10:32:01;12.23;;;6.67;;
84738;SDS011;74969;44.836;-0.586;2024-01-30T10:34:32;10.88;;;7.07;;
84738;SDS011;74969;44.836;-0.586;2024-01-30T10:39:41;10.43;;;6.50;;
84738;SDS011;74969;44.836;-0.586;2024-01-30T10:42:13;13.88;;;7.65;;
84738;SDS011;74969;44.836;-0.586;2024-01-30T10:47:17;13.75;;;7.35;;
84738;SDS011;74969;44.836;-0.586;2024-01-30T10:49:50;11.23;;;6.82;;
84738;SDS011;74969;44.836;-0.586;2024-01-30T10:52:17;12.40;;;7.00;;
84738;SDS011;74969;44.836;-0.586;2024-01-30T10:54:44;10.90;;;6.30;;
84738;SDS011;74969;44.836;-0.586;2024-01-30T10:57:10;9.80;;;6.87;;
84738;SDS011;74969;44.836;-0.586;2024-01-30T10:59:37;8.88;;;6.70;;
84738;SDS011;74969;44.836;-0.586;2024-01-30T11:02:04;11.70;;;7.22;;
84738;SDS011;74969;44.836;-0.586;2024-01-30T11:04:37;10.38;;;6.57;;
84738;SDS011;74969;44.836;-0.586;2024-01-30T11:07:18;8.57;;;6.50;;
84738;SDS011;74969;44.836;-0.586;2024-01-30T11:09:49;10.67;;;6.70;;
84738;SDS011;74969;44.836;-0.586;2024-01-30T11:12:16;9.50;;;6.38;;
84738;SDS011;74969;44.836;-0.586;2024-01-30T11:14:46;9.25;;;6.25;;
84738;SDS011;74969;44.836;-0.586;2024-01-30T11:17:11;10.90;;;5.60;;
84738;SDS011;74969;44.836;-0.586;2024-01-30T11:19:37;9.50;;;6.20;;
84738;SDS011;74969;44.836;-0.586;2024-01-30T11:22:03;7.40;;;6.38;;
84738;SDS011;74969;44.836;-0.586;2024-01-30T11:24:36;9.05;;;6.15;;
84738;SDS011;74969;44.836;-0.586;2024-01-30T11:27:10;8.68;;;5.20;;
84738;SDS011;74969;44.836;-0.586;2024-01-30T11:29:36;11.50;;;6.18;;
84738;SDS011;74969;44.836;-0.586;2024-01-30T11:32:02;9.65;;;5.45;;
84738;SDS011;74969;44.836;-0.586;2024-01-30T11:34:28;8.73;;;6.00;;
84738;SDS011;74969;44.836;-0.586;2024-01-30T11:36:57;10.70;;;5.90;;
84738;SDS011;74969;44.836;-0.586;2024-01-30T11:39:25;8.65;;;5.43;;
84738;SDS011;74969;44.836;-0.586;2024-01-30T11:41:54;10.38;;;6.40;;
84738;SDS011;74969;44.836;-0.586;2024-01-30T11:44:20;9.30;;;6.30;;
84738;SDS011;74969;44.836;-0.586;2024-01-30T11:46:47;9.80;;;5.57;;
84738;SDS011;74969;44.836;-0.586;2024-01-30T11:49:13;10.38;;;6.05;;
84738;SDS011;74969;44.836;-0.586;2024-01-30T11:51:39;10.65;;;5.82;;
84738;SDS011;74969;44.836;-0.586;2024-01-30T11:54:05;9.90;;;5.80;;
84738;SDS011;74969;44.836;-0.586;2024-01-30T11:56:32;10.73;;;5.68;;
84738;SDS011;74969;44.836;-0.586;2024-01-30T11:58:58;9.13;;;5.40;;
84738;SDS011;74969;44.836;-0.586;2024-01-30T12:01:28;12.07;;;5.50;;
84738;SDS011;74969;44.836;-0.586;2024-01-30T12:03:54;7.82;;;5.57;;
84738;SDS011;74969;44.836;-0.586;2024-01-30T12:06:22;10.48;;;5.55;;
84738;SDS011;74969;44.836;-0.586;2024-01-30T12:09:22;10.20;;;5.85;;
84738;SDS011;74969;44.836;-0.586;2024-01-30T12:11:45;10.73;;;6.80;;
84738;SDS011;74969;44.836;-0.586;2024-01-30T12:14:11;7.28;;;5.60;;
84738;SDS011;74969;44.836;-0.586;2024-01-30T12:16:37;11.18;;;6.60;;
84738;SDS011;74969;44.836;-0.586;2024-01-30T12:19:03;11.13;;;6.25;;
84738;SDS011;74969;44.836;-0.586;2024-01-30T12:21:29;8.93;;;5.57;;
84738;SDS011;74969;44.836;-0.586;2024-01-30T12:23:56;6.85;;;4.88;;
84738;SDS011;74969;44.836;-0.586;2024-01-30T12:26:23;11.20;;;5.82;;
84738;SDS011;74969;44.836;-0.586;2024-01-30T12:28:50;8.93;;;5.43;;
84738;SDS011;74969;44.836;-0.586;2024-01-30T12:31:25;14.88;;;6.20;;
84738;SDS011;74969;44.836;-0.586;2024-01-30T12:33:52;8.07;;;5.80;;
84738;SDS011;74969;44.836;-0.586;2024-01-30T12:36:17;10.60;;;5.20;;
84738;SDS011;74969;44.836;-0.586;2024-01-30T12:38:43;8.40;;;5.85;;
84738;SDS011;74969;44.836;-0.586;2024-01-30T12:41:10;7.80;;;5.90;;
84738;SDS011;74969;44.836;-0.586;2024-01-30T12:43:36;11.10;;;6.00;;
84738;SDS011;74969;44.836;-0.586;2024-01-30T12:46:02;11.10;;;5.97;;
84738;SDS011;74969;44.836;-0.586;2024-01-30T12:48:28;11.45;;;5.75;;
84738;SDS011;74969;44.836;-0.586;2024-01-30T12:50:55;12.32;;;6.18;;
84738;SDS011;74969;44.836;-0.586;2024-01-30T12:53:21;10.43;;;5.80;;
84738;SDS011;74969;44.836;-0.586;2024-01-30T12:55:47;8.82;;;5.70;;
84738;SDS011;74969;44.836;-0.586;2024-01-30T12:58:14;8.48;;;5.60;;
84738;SDS011;74969;44.836;-0.586;2024-01-30T13:00:40;10.10;;;5.30;;
84738;SDS011;74969;44.836;-0.586;2024-01-30T13:03:08;11.82;;;5.40;;
84738;SDS011;74969;44.836;-0.586;2024-01-30T13:05:34;6.30;;;5.10;;
84738;SDS011;74969;44.836;-0.586;2024-01-30T13:08:00;10.40;;;5.80;;
84738;SDS011;74969;44.836;-0.586;2024-01-30T13:10:26;9.10;;;5.25;;
84738;SDS011;74969;44.836;-0.586;2024-01-30T13:12:52;9.25;;;6.20;;
84738;SDS011;74969;44.836;-0.586;2024-01-30T13:15:18;11.30;;;5.60;;
84738;SDS011;74969;44.836;-0.586;2024-01-30T13:17:44;9.57;;;5.38;;
84738;SDS011;74969;44.836;-0.586;2024-01-30T13:20:12;8.00;;;5.82;;
84738;SDS011;74969;44.836;-0.586;2024-01-30T13:22:41;12.63;;;6.17;;
84738;SDS011;74969;44.836;-0.586;2024-01-30T13:25:08;9.18;;;5.57;;
84738;SDS011;74969;44.836;-0.586;2024-01-30T13:27:34;9.00;;;5.50;;
84738;SDS011;74969;44.836;-0.586;2024-01-30T13:30:00;12.88;;;5.22;;
84738;SDS011;74969;44.836;-0.586;2024-01-30T13:32:26;11.45;;;6.78;;
84738;SDS011;74969;44.836;-0.586;2024-01-30T13:34:51;9.47;;;6.40;;
84738;SDS011;74969;44.836;-0.586;2024-01-30T13:37:17;8.65;;;6.25;;
84738;SDS011;74969;44.836;-0.586;2024-01-30T13:39:43;12.00;;;6.22;;
84738;SDS011;74969;44.836;-0.586;2024-01-30T13:42:09;11.37;;;6.13;;
84738;SDS011;74969;44.836;-0.586;2024-01-30T13:44:35;14.15;;;6.00;;
84738;SDS011;74969;44.836;-0.586;2024-01-30T13:47:01;12.00;;;6.10;;
84738;SDS011;74969;44.836;-0.586;2024-01-30T13:49:27;12.20;;;7.03;;
84738;SDS011;74969;44.836;-0.586;2024-01-30T13:51:54;9.32;;;5.63;;
84738;SDS011;74969;44.836;-0.586;2024-01-30T13:54:20;14.30;;;5.95;;
84738;SDS011;74969;44.836;-0.586;2024-01-30T13:56:45;13.57;;;6.03;;
84738;SDS011;74969;44.836;-0.586;2024-01-30T13:59:11;11.90;;;6.30;;
84738;SDS011;74969;44.836;-0.586;2024-01-30T14:01:37;13.10;;;5.97;;
84738;SDS011;74969;44.836;-0.586;2024-01-30T14:04:02;10.35;;;6.20;;
84738;SDS011;74969;44.836;-0.586;2024-01-30T14:06:28;11.50;;;6.03;;
84738;SDS011;74969;44.836;-0.586;2024-01-30T14:08:54;13.57;;;6.63;;
84738;SDS011;74969;44.836;-0.586;2024-01-30T14:11:20;13.60;;;6.17;;
84738;SDS011;74969;44.836;-0.586;2024-01-30T14:13:46;10.15;;;5.80;;
84738;SDS011;74969;44.836;-0.586;2024-01-30T14:16:11;11.73;;;6.03;;
84738;SDS011;74969;44.836;-0.586;2024-01-30T14:18:37;9.05;;;6.13;;
84738;SDS011;74969;44.836;-0.586;2024-01-30T14:21:03;10.57;;;5.93;;
84738;SDS011;74969;44.836;-0.586;2024-01-30T14:23:29;9.95;;;5.63;;
84738;SDS011;74969;44.836;-0.586;2024-01-30T14:25:54;11.57;;;6.70;;
84738;SDS011;74969;44.836;-0.586;2024-01-30T14:28:20;9.50;;;6.00;;
84738;SDS011;74969;44.836;-0.586;2024-01-30T14:30:46;10.27;;;5.75;;
84738;SDS011;74969;44.836;-0.586;2024-01-30T14:33:12;11.93;;;6.77;;
84738;SDS011;74969;44.836;-0.586;2024-01-30T14:35:38;10.35;;;5.63;;